Time;durP1;ratioP1;P1;durP2;ratioP2;P2;SDS_P1;SDS_P2;PMS_P1;PMS_P2;Temp;Humidity;BMP_temperature;BMP_pressure;BME280_temperature;BME280_humidity;BME280_pressure;Samples;Min_cycle;Max_cycle;Signal;HPM_P1;HPM_P2
2023/08/01 00:01:02;;;;;;;16.03;14.30;;;20.70;99.90;;;;;;4955961;28;20468;-83
2023/08/01 00:03:29;;;;;;;5.70;4.30;;;20.60;99.90;;;;;;4954846;29;20812;-87
2023/08/01 00:05:56;;;;;;;7.87;4.70;;;20.60;99.90;;;;;;4973624;28;20503;-87
2023/08/01 00:08:24;;;;;;;6.50;5.43;;;20.60;99.90;;;;;;4974811;28;20566;-81
2023/08/01 00:10:51;;;;;;;9.33;5.23;;;20.60;99.90;;;;;;4975269;28;20854;-82
2023/08/01 00:13:19;;;;;;;5.97;4.40;;;20.60;99.90;;;;;;4974924;28;20467;-87
2023/08/01 00:15:46;;;;;;;7.23;6.10;;;20.60;99.90;;;;;;4975769;28;20471;-82
2023/08/01 00:18:12;;;;;;;5.40;4.47;;;20.60;99.90;;;;;;4975106;28;20479;-88
2023/08/01 00:20:41;;;;;;;6.37;4.53;;;20.50;99.90;;;;;;4975321;28;20850;-83
2023/08/01 00:23:08;;;;;;;5.80;4.07;;;20.50;99.90;;;;;;4975370;28;20562;-82
2023/08/01 00:25:36;;;;;;;10.27;8.93;;;20.50;99.90;;;;;;4974436;28;20482;-87
2023/08/01 00:28:03;;;;;;;6.20;4.70;;;20.50;99.90;;;;;;4975424;28;20876;-87
2023/08/01 00:30:32;;;;;;;6.07;4.90;;;20.40;99.90;;;;;;4974069;28;20554;-82
2023/08/01 00:32:59;;;;;;;5.07;4.30;;;20.40;99.90;;;;;;4974469;28;20475;-83
2023/08/01 00:35:26;;;;;;;8.80;7.17;;;20.30;99.90;;;;;;4974222;28;20483;-86
2023/08/01 00:37:53;;;;;;;6.67;5.93;;;20.30;99.90;;;;;;4975204;28;20470;-82
2023/08/01 00:40:21;;;;;;;8.40;4.43;;;20.20;99.90;;;;;;4974188;28;20498;-82
2023/08/01 00:42:55;;;;;;;5.60;4.10;;;20.20;99.90;;;;;;4974994;28;20475;-88
2023/08/01 00:45:24;;;;;;;4.57;4.10;;;20.10;99.90;;;;;;4974393;28;20973;-83
2023/08/01 00:47:51;;;;;;;6.00;4.03;;;20.10;99.90;;;;;;4974920;28;21016;-82
2023/08/01 00:50:20;;;;;;;7.63;5.73;;;20.00;99.90;;;;;;4967488;28;20478;-86
2023/08/01 00:52:47;;;;;;;4.37;3.97;;;20.00;99.90;;;;;;4974774;28;20466;-87
2023/08/01 00:55:15;;;;;;;4.10;3.67;;;19.90;99.90;;;;;;4974845;28;20894;-81
2023/08/01 00:57:45;;;;;;;4.83;3.97;;;19.90;99.90;;;;;;4974269;28;20463;-87
2023/08/01 01:00:15;;;;;;;4.10;3.50;;;19.90;99.90;;;;;;4974863;28;20502;-87
2023/08/01 01:02:51;;;;;;;5.63;5.10;;;19.90;99.90;;;;;;4974572;28;20459;-82
2023/08/01 01:05:19;;;;;;;12.23;10.13;;;19.80;99.90;;;;;;4974525;28;20894;-87
2023/08/01 01:07:47;;;;;;;5.00;4.60;;;19.80;99.90;;;;;;4974507;28;20541;-82
2023/08/01 01:10:14;;;;;;;3.43;3.13;;;19.80;99.90;;;;;;4974451;28;20972;-82
2023/08/01 01:12:41;;;;;;;3.77;3.37;;;19.70;99.90;;;;;;4973628;28;20471;-82
2023/08/01 01:15:09;;;;;;;4.73;3.70;;;19.70;99.90;;;;;;4974075;28;20475;-82
2023/08/01 01:17:37;;;;;;;5.10;3.73;;;19.70;99.90;;;;;;4973541;28;20550;-87
2023/08/01 01:20:04;;;;;;;4.60;4.10;;;19.70;99.90;;;;;;4974801;28;20956;-82
2023/08/01 01:22:34;;;;;;;4.53;3.10;;;19.60;99.90;;;;;;4974058;28;20534;-83
2023/08/01 01:25:02;;;;;;;5.30;4.00;;;19.60;99.90;;;;;;4974163;28;20474;-87
2023/08/01 01:27:30;;;;;;;3.40;3.10;;;19.60;99.90;;;;;;4974203;28;20475;-82
2023/08/01 01:29:58;;;;;;;4.23;3.83;;;19.60;99.90;;;;;;4974235;28;20481;-87
2023/08/01 01:32:25;;;;;;;4.17;3.33;;;19.60;99.90;;;;;;4973837;28;20868;-83
2023/08/01 01:34:53;;;;;;;4.23;3.90;;;19.50;99.90;;;;;;4974255;28;20471;-87
2023/08/01 01:37:20;;;;;;;3.37;3.00;;;19.50;99.90;;;;;;4974368;28;20482;-87
2023/08/01 01:39:48;;;;;;;4.07;3.77;;;19.50;99.90;;;;;;4973791;28;20458;-87
2023/08/01 01:42:15;;;;;;;5.77;4.07;;;19.50;99.90;;;;;;4974751;28;20530;-87
2023/08/01 01:44:44;;;;;;;4.47;3.77;;;19.50;99.90;;;;;;4973488;28;20581;-87
2023/08/01 01:47:11;;;;;;;4.73;4.33;;;19.50;99.90;;;;;;4974175;28;20480;-87
2023/08/01 01:49:38;;;;;;;4.23;3.83;;;19.50;99.90;;;;;;4973758;28;20475;-82
2023/08/01 01:52:05;;;;;;;5.10;4.70;;;19.50;99.90;;;;;;4974366;28;20569;-87
2023/08/01 01:54:32;;;;;;;4.60;3.70;;;19.40;99.90;;;;;;4973434;28;20534;-85
2023/08/01 01:57:02;;;;;;;5.97;4.23;;;19.40;99.90;;;;;;4973933;28;20546;-87
2023/08/01 01:59:29;;;;;;;6.30;4.93;;;19.40;99.90;;;;;;4974457;28;20474;-87
2023/08/01 02:01:59;;;;;;;6.93;6.07;;;19.40;99.90;;;;;;4973662;28;20792;-87
2023/08/01 02:04:26;;;;;;;5.20;4.10;;;19.40;99.90;;;;;;4973842;28;20490;-87
2023/08/01 02:06:54;;;;;;;6.20;4.20;;;19.40;99.90;;;;;;4963446;28;20575;-87
2023/08/01 02:09:21;;;;;;;4.23;3.83;;;19.40;99.90;;;;;;4975004;28;20498;-86
2023/08/01 02:11:54;;;;;;;6.03;3.93;;;19.40;99.90;;;;;;4974783;28;20499;-87
2023/08/01 02:14:23;;;;;;;4.10;3.70;;;19.40;99.90;;;;;;4964603;28;20570;-87
2023/08/01 02:16:50;;;;;;;5.20;4.27;;;19.40;99.90;;;;;;4983188;28;20470;-86
2023/08/01 02:19:18;;;;;;;5.10;3.90;;;19.40;99.90;;;;;;4974020;28;20821;-82
2023/08/01 02:21:45;;;;;;;5.80;3.97;;;19.40;99.90;;;;;;4973006;28;20746;-83
2023/08/01 02:24:12;;;;;;;3.83;3.53;;;19.40;99.90;;;;;;4975964;28;20771;-87
2023/08/01 02:26:39;;;;;;;4.30;3.90;;;19.40;99.90;;;;;;4978065;28;20475;-82
2023/08/01 02:29:09;;;;;;;8.10;3.73;;;19.40;99.90;;;;;;4977975;28;20509;-82
2023/08/01 02:31:39;;;;;;;6.47;4.63;;;19.40;99.90;;;;;;4967851;28;21109;-82
2023/08/01 02:34:06;;;;;;;6.00;4.50;;;19.40;99.90;;;;;;4978284;28;20467;-87
2023/08/01 02:36:33;;;;;;;3.60;3.27;;;19.40;99.90;;;;;;4978144;28;20570;-82
2023/08/01 02:39:03;;;;;;;4.57;4.20;;;19.30;99.90;;;;;;4977362;28;20542;-81
2023/08/01 02:41:30;;;;;;;4.40;3.90;;;19.30;99.90;;;;;;4978600;28;20475;-87
2023/08/01 02:44:30;;;;;;;4.37;3.90;;;19.40;99.90;;;;;;4977402;28;20524;-84
2023/08/01 02:46:58;;;;;;;4.10;3.70;;;19.40;99.90;;;;;;4967520;28;20493;-83
2023/08/01 02:49:25;;;;;;;5.40;4.17;;;19.30;99.90;;;;;;4977915;28;20728;-81
2023/08/01 02:51:52;;;;;;;4.27;3.80;;;19.30;99.90;;;;;;4977212;28;20972;-87
2023/08/01 02:54:19;;;;;;;4.13;3.70;;;19.30;99.90;;;;;;4977662;28;20475;-83
2023/08/01 02:56:46;;;;;;;4.10;3.70;;;19.30;99.90;;;;;;4976756;28;21039;-83
2023/08/01 02:59:13;;;;;;;4.07;3.67;;;19.30;99.90;;;;;;4976945;28;20458;-82
2023/08/01 03:01:40;;;;;;;4.40;4.00;;;19.40;99.90;;;;;;4960375;28;20483;-83
2023/08/01 03:04:11;;;;;;;4.53;4.13;;;19.40;99.90;;;;;;4974236;28;20821;-86
2023/08/01 03:06:38;;;;;;;4.40;3.90;;;19.40;99.90;;;;;;4977198;28;20475;-87
2023/08/01 03:09:07;;;;;;;6.60;4.67;;;19.40;99.90;;;;;;4976537;28;20474;-87
2023/08/01 03:11:39;;;;;;;4.57;4.20;;;19.40;99.90;;;;;;4976437;28;20478;-86
2023/08/01 03:14:07;;;;;;;5.20;4.67;;;19.40;99.90;;;;;;4976646;28;20562;-86
2023/08/01 03:16:35;;;;;;;6.63;4.27;;;19.40;99.90;;;;;;4976611;28;20872;-81
2023/08/01 03:19:04;;;;;;;4.63;4.23;;;19.40;99.90;;;;;;4975775;28;20821;-82
2023/08/01 03:21:33;;;;;;;4.97;4.27;;;19.40;99.90;;;;;;4976936;28;20858;-81
2023/08/01 03:24:18;;;;;;;3.63;3.33;;;19.40;99.90;;;;;;4965288;28;20487;-82
2023/08/01 03:26:45;;;;;;;4.80;4.40;;;19.40;99.90;;;;;;4975250;28;20554;-82
2023/08/01 03:29:15;;;;;;;4.87;4.47;;;19.50;99.90;;;;;;4976353;28;20529;-81
2023/08/01 03:31:42;;;;;;;5.97;3.63;;;19.40;99.90;;;;;;4976783;28;20467;-87
2023/08/01 03:34:09;;;;;;;7.37;4.23;;;19.40;99.90;;;;;;4975852;28;20851;-81
2023/08/01 03:36:37;;;;;;;4.57;4.17;;;19.40;99.90;;;;;;4976472;28;20802;-86
2023/08/01 03:39:05;;;;;;;4.40;3.70;;;19.30;99.90;;;;;;4977374;28;20463;-87
2023/08/01 03:41:32;;;;;;;4.53;4.00;;;19.30;99.90;;;;;;4977068;28;20553;-87
2023/08/01 03:43:59;;;;;;;9.53;4.10;;;19.20;99.90;;;;;;4966713;28;20514;-86
2023/08/01 03:46:26;;;;;;;5.90;3.53;;;19.30;99.90;;;;;;4977201;28;20546;-85
2023/08/01 03:48:53;;;;;;;4.30;3.57;;;19.30;99.90;;;;;;4975950;28;20817;-81
2023/08/01 03:51:20;;;;;;;5.00;4.50;;;19.30;99.90;;;;;;4975853;28;20503;-86
2023/08/01 03:53:50;;;;;;;5.13;3.70;;;19.30;99.90;;;;;;4975907;28;20507;-87
2023/08/01 03:56:17;;;;;;;3.67;3.37;;;19.30;99.90;;;;;;4975037;28;20526;-82
2023/08/01 03:58:46;;;;;;;4.00;3.60;;;19.30;99.90;;;;;;4975745;28;20477;-87
2023/08/01 04:01:13;;;;;;;6.40;3.80;;;19.30;99.90;;;;;;4975000;28;20463;-87
2023/08/01 04:03:40;;;;;;;4.60;4.07;;;19.30;99.90;;;;;;4975825;28;20501;-87
2023/08/01 04:06:07;;;;;;;3.87;3.57;;;19.30;99.90;;;;;;4974832;28;20874;-82
2023/08/01 04:08:34;;;;;;;5.03;3.67;;;19.40;99.90;;;;;;4975923;28;20463;-86
2023/08/01 04:11:02;;;;;;;5.13;3.70;;;19.40;99.90;;;;;;4975175;28;20471;-82
2023/08/01 04:13:29;;;;;;;5.20;4.43;;;19.40;99.90;;;;;;4975494;28;20475;-82
2023/08/01 04:15:56;;;;;;;4.53;3.80;;;19.40;99.90;;;;;;4974490;28;20471;-82
2023/08/01 04:18:26;;;;;;;4.07;3.37;;;19.40;99.90;;;;;;4976298;28;20463;-87
2023/08/01 04:20:52;;;;;;;3.60;3.30;;;19.40;99.90;;;;;;4976527;28;20477;-87
2023/08/01 04:23:20;;;;;;;4.50;3.67;;;19.50;99.90;;;;;;4975698;28;20475;-82
2023/08/01 04:25:46;;;;;;;3.90;3.43;;;19.50;99.90;;;;;;4976279;28;20498;-87
2023/08/01 04:28:21;;;;;;;4.17;3.07;;;19.40;99.90;;;;;;4975995;28;20546;-81
2023/08/01 04:30:50;;;;;;;3.87;3.47;;;19.40;99.90;;;;;;4975045;28;20498;-82
2023/08/01 04:33:17;;;;;;;6.33;4.17;;;19.40;99.90;;;;;;4975126;28;20498;-86
2023/08/01 04:35:44;;;;;;;4.30;3.33;;;19.40;99.90;;;;;;4975637;28;20558;-82
2023/08/01 04:38:11;;;;;;;4.17;3.33;;;19.40;99.90;;;;;;4975204;28;20482;-87
2023/08/01 04:40:38;;;;;;;3.33;3.03;;;19.50;99.90;;;;;;4975404;28;20463;-82
2023/08/01 04:43:05;;;;;;;3.77;3.40;;;19.50;99.90;;;;;;4974402;28;20500;-82
2023/08/01 04:45:33;;;;;;;5.67;2.97;;;19.50;99.90;;;;;;4974510;28;20517;-87
2023/08/01 04:48:00;;;;;;;3.97;3.23;;;19.50;99.90;;;;;;4974878;28;20582;-83
2023/08/01 04:50:27;;;;;;;3.90;3.47;;;19.50;99.90;;;;;;4974324;28;20507;-82
2023/08/01 04:52:54;;;;;;;2.83;2.63;;;19.60;99.90;;;;;;4975046;28;20534;-82
2023/08/01 04:55:21;;;;;;;3.30;3.00;;;19.60;99.90;;;;;;4973774;28;20522;-82
2023/08/01 04:57:48;;;;;;;3.97;3.67;;;19.70;99.90;;;;;;4964893;28;20470;-82
2023/08/01 05:00:15;;;;;;;3.60;3.30;;;19.70;99.90;;;;;;4974084;28;20517;-82
2023/08/01 05:02:43;;;;;;;3.27;2.97;;;19.70;99.90;;;;;;4974885;28;20854;-87
2023/08/01 05:05:11;;;;;;;3.30;3.00;;;19.80;99.90;;;;;;4973548;28;20553;-87
2023/08/01 05:07:38;;;;;;;2.90;2.70;;;19.80;99.90;;;;;;4974500;28;20467;-82
2023/08/01 05:10:09;;;;;;;6.23;3.53;;;19.80;99.90;;;;;;4973941;28;20477;-87
2023/08/01 05:12:35;;;;;;;3.60;3.30;;;19.80;99.90;;;;;;4975154;28;20600;-82
2023/08/01 05:15:03;;;;;;;4.00;3.20;;;19.70;99.90;;;;;;4974182;28;20503;-82
2023/08/01 05:17:30;;;;;;;3.63;3.33;;;19.70;99.90;;;;;;4974208;28;20463;-83
2023/08/01 05:19:59;;;;;;;3.53;3.20;;;19.70;99.90;;;;;;4974214;28;20474;-82
2023/08/01 05:22:26;;;;;;;2.93;2.73;;;19.80;99.90;;;;;;4974245;28;23446;-87
2023/08/01 05:24:53;;;;;;;3.53;3.00;;;19.80;99.90;;;;;;4974342;28;20474;-87
2023/08/01 05:27:19;;;;;;;3.77;3.47;;;19.70;99.90;;;;;;4965466;28;20483;-87
2023/08/01 05:29:46;;;;;;;3.20;2.83;;;19.70;99.90;;;;;;4974515;28;20541;-82
2023/08/01 05:32:13;;;;;;;4.13;2.80;;;19.70;99.90;;;;;;4973313;28;20553;-83
2023/08/01 05:34:40;;;;;;;5.03;3.80;;;19.70;99.90;;;;;;4974224;28;20533;-87
2023/08/01 05:37:09;;;;;;;4.63;3.60;;;19.70;99.90;;;;;;4974604;28;20507;-87
2023/08/01 05:39:36;;;;;;;3.97;2.50;;;19.80;99.90;;;;;;4973195;28;20494;-82
2023/08/01 05:42:08;;;;;;;3.53;3.20;;;19.80;99.90;;;;;;4974446;28;21013;-82
2023/08/01 05:44:35;;;;;;;7.10;4.50;;;19.90;99.90;;;;;;4973575;28;20483;-87
2023/08/01 05:47:02;;;;;;;5.07;4.07;;;19.90;99.90;;;;;;4974613;28;20809;-85
2023/08/01 05:49:30;;;;;;;4.63;4.23;;;19.90;99.90;;;;;;4973922;28;20482;-87
2023/08/01 05:51:57;;;;;;;3.93;3.53;;;19.90;99.90;;;;;;4974348;28;20534;-82
2023/08/01 05:54:26;;;;;;;4.10;3.80;;;19.90;99.90;;;;;;4973500;28;20509;-82
2023/08/01 05:56:56;;;;;;;3.80;3.50;;;20.00;99.90;;;;;;4974478;28;20800;-87
2023/08/01 05:59:23;;;;;;;3.63;3.33;;;20.00;99.90;;;;;;4977165;28;20561;-87
2023/08/01 06:01:53;;;;;;;4.03;3.43;;;19.90;99.90;;;;;;4978167;28;20521;-82
2023/08/01 06:04:23;;;;;;;3.40;3.20;;;20.00;99.90;;;;;;4977010;28;20503;-82
2023/08/01 06:06:50;;;;;;;3.87;3.30;;;20.00;99.90;;;;;;4977811;28;21020;-87
2023/08/01 06:09:17;;;;;;;6.10;3.90;;;20.00;99.90;;;;;;4976553;28;20968;-86
2023/08/01 06:11:45;;;;;;;3.67;3.37;;;20.10;99.90;;;;;;4978021;28;20527;-83
2023/08/01 06:14:12;;;;;;;3.70;3.40;;;20.00;99.90;;;;;;4977423;28;20961;-82
2023/08/01 06:16:39;;;;;;;3.60;3.30;;;20.00;99.90;;;;;;4976996;28;20458;-87
2023/08/01 06:19:06;;;;;;;3.60;3.17;;;20.00;99.90;;;;;;4977403;28;20489;-82
2023/08/01 06:21:33;;;;;;;7.43;4.27;;;20.00;99.90;;;;;;4976552;28;20993;-87
2023/08/01 06:24:03;;;;;;;4.70;3.07;;;20.00;99.90;;;;;;4977162;28;20489;-87
2023/08/01 06:26:30;;;;;;;4.50;4.10;;;20.00;99.90;;;;;;4977344;28;20505;-87
2023/08/01 06:29:00;;;;;;;4.07;3.67;;;20.00;99.90;;;;;;4977188;28;20490;-82
2023/08/01 06:31:27;;;;;;;4.97;3.47;;;20.00;99.90;;;;;;4976457;28;20489;-83
2023/08/01 06:33:54;;;;;;;3.20;2.90;;;20.00;99.90;;;;;;4977078;28;20574;-87
2023/08/01 06:36:21;;;;;;;3.33;3.13;;;20.00;99.90;;;;;;4976588;28;20483;-83
2023/08/01 06:38:48;;;;;;;3.17;2.77;;;20.10;99.90;;;;;;4976912;28;20479;-82
2023/08/01 06:41:29;;;;;;;5.97;3.10;;;20.10;99.90;;;;;;4977482;28;20482;-82
2023/08/01 06:43:57;;;;;;;3.50;3.10;;;20.20;99.90;;;;;;4977289;28;20511;-82
2023/08/01 06:46:24;;;;;;;4.00;3.17;;;20.20;99.90;;;;;;4976526;28;20956;-82
2023/08/01 06:48:51;;;;;;;3.60;3.30;;;20.20;99.90;;;;;;4966352;28;20482;-86
2023/08/01 06:51:18;;;;;;;4.37;3.10;;;20.20;99.90;;;;;;4966434;28;20956;-82
2023/08/01 06:53:46;;;;;;;3.70;3.40;;;20.10;99.90;;;;;;4976713;28;20467;-82
2023/08/01 06:56:38;;;;;;;3.43;3.13;;;20.20;99.90;;;;;;4968208;28;20475;-86
2023/08/01 06:59:07;;;;;;;3.57;3.27;;;20.20;99.90;;;;;;4976489;28;21032;-82
2023/08/01 07:01:34;;;;;;;3.40;3.03;;;20.30;99.90;;;;;;4976869;28;20528;-87
2023/08/01 07:06:46;;;;;;;2.77;2.50;;;20.20;99.90;;;;;;4916736;29;20471;-86
2023/08/01 07:09:13;;;;;;;3.30;3.10;;;20.30;99.90;;;;;;4918031;29;20469;-81
2023/08/01 07:11:40;;;;;;;3.40;3.20;;;20.30;99.90;;;;;;4918877;29;20470;-86
2023/08/01 07:14:08;;;;;;;3.40;3.10;;;20.30;99.90;;;;;;4923037;29;20821;-82
2023/08/01 07:16:35;;;;;;;3.57;3.27;;;20.20;99.90;;;;;;4927838;29;20569;-81
2023/08/01 07:19:03;;;;;;;3.20;2.80;;;20.30;99.90;;;;;;4937069;29;20513;-84
2023/08/01 07:21:30;;;;;;;4.67;3.60;;;20.30;99.90;;;;;;4937673;29;20814;-80
2023/08/01 07:23:57;;;;;;;4.83;4.40;;;20.30;99.90;;;;;;4937322;29;20566;-86
2023/08/01 07:26:30;;;;;;;6.57;5.43;;;20.30;99.90;;;;;;4937323;29;20487;-86
2023/08/01 07:28:57;;;;;;;4.60;4.10;;;20.30;99.90;;;;;;4937116;29;20479;-87
2023/08/01 07:31:29;;;;;;;5.50;4.93;;;20.40;99.90;;;;;;4937533;29;20540;-82
2023/08/01 07:33:56;;;;;;;3.57;3.27;;;20.40;99.90;;;;;;4936847;29;20480;-81
2023/08/01 07:36:23;;;;;;;5.10;4.70;;;20.50;99.90;;;;;;4937633;29;20492;-86
2023/08/01 07:38:50;;;;;;;3.23;2.93;;;20.60;99.90;;;;;;4937769;29;20472;-81
2023/08/01 07:41:17;;;;;;;4.50;2.27;;;20.60;99.90;;;;;;4929096;29;20520;-82
2023/08/01 07:43:44;;;;;;;3.67;2.80;;;20.60;99.90;;;;;;4937642;29;20548;-88
2023/08/01 07:46:11;;;;;;;3.20;2.70;;;20.70;99.90;;;;;;4937218;29;20480;-87
2023/08/01 07:48:44;;;;;;;3.93;2.67;;;20.80;99.90;;;;;;4937140;29;20472;-88
2023/08/01 07:51:14;;;;;;;3.07;2.77;;;20.90;99.90;;;;;;4937257;29;20480;-86
2023/08/01 07:53:44;;;;;;;2.70;2.50;;;21.00;99.90;;;;;;4937441;29;20468;-88
2023/08/01 07:56:13;;;;;;;2.67;2.47;;;21.10;99.90;;;;;;4926842;29;20804;-83
2023/08/01 07:58:40;;;;;;;3.67;2.70;;;21.20;99.90;;;;;;4937176;29;20555;-81
2023/08/01 08:01:07;;;;;;;3.60;2.60;;;21.30;99.90;;;;;;4927142;29;21046;-83
2023/08/01 08:03:34;;;;;;;3.67;2.80;;;21.30;99.90;;;;;;4926421;29;20572;-82
2023/08/01 08:06:10;;;;;;;4.07;2.73;;;21.40;99.90;;;;;;4937519;29;20946;-82
2023/08/01 08:08:38;;;;;;;2.30;2.10;;;21.50;99.90;;;;;;4934535;29;20501;-82
2023/08/01 08:11:05;;;;;;;3.63;2.73;;;21.40;99.90;;;;;;4956191;29;20544;-87
2023/08/01 08:13:32;;;;;;;3.30;2.00;;;21.60;99.90;;;;;;4942607;29;20522;-88
2023/08/01 08:16:00;;;;;;;2.83;2.63;;;21.60;99.90;;;;;;4956690;29;20962;-82
2023/08/01 08:18:28;;;;;;;2.77;2.57;;;21.70;99.90;;;;;;4956109;29;20476;-88
2023/08/01 08:20:54;;;;;;;1.87;1.77;;;21.90;99.90;;;;;;4956317;28;20479;-82
2023/08/01 08:23:23;;;;;;;2.30;2.10;;;21.90;99.90;;;;;;4955642;28;20476;-82
2023/08/01 08:25:50;;;;;;;3.60;2.30;;;22.00;99.90;;;;;;4955926;28;20561;-82
2023/08/01 08:28:28;;;;;;;2.53;2.17;;;22.00;99.90;;;;;;4955365;29;20540;-83
2023/08/01 08:30:54;;;;;;;3.77;2.40;;;22.00;99.90;;;;;;4955937;29;20570;-82
2023/08/01 08:33:22;;;;;;;2.90;2.70;;;22.00;99.90;;;;;;4955711;29;20475;-82
2023/08/01 08:35:49;;;;;;;4.73;3.57;;;22.00;99.90;;;;;;4956036;28;20570;-88
2023/08/01 08:38:22;;;;;;;3.10;2.40;;;22.00;99.90;;;;;;4955233;29;20475;-88
2023/08/01 08:41:32;;;;;;;2.47;2.27;;;22.10;99.90;;;;;;4955994;29;20507;-88
2023/08/01 08:44:02;;;;;;;6.67;4.90;;;22.10;99.90;;;;;;4938628;28;20460;-88
2023/08/01 08:46:30;;;;;;;4.87;3.90;;;22.20;99.90;;;;;;4955929;29;20540;-82
2023/08/01 08:49:03;;;;;;;3.20;2.23;;;22.30;99.90;;;;;;4955014;29;20469;-87
2023/08/01 08:51:32;;;;;;;2.43;2.23;;;22.30;99.90;;;;;;4955573;29;20482;-87
2023/08/01 08:54:03;;;;;;;2.03;1.80;;;22.30;99.90;;;;;;4954879;28;20518;-82
2023/08/01 08:56:30;;;;;;;1.70;1.50;;;22.30;99.90;;;;;;4955541;29;20468;-83
2023/08/01 08:58:58;;;;;;;1.67;1.57;;;22.30;99.90;;;;;;4955087;29;20487;-87
2023/08/01 09:01:30;;;;;;;2.40;2.20;;;22.30;99.90;;;;;;4955945;29;20479;-87
2023/08/01 09:03:59;;;;;;;2.63;2.43;;;22.30;99.90;;;;;;4945887;29;20488;-87
2023/08/01 09:06:45;;;;;;;3.30;2.50;;;22.30;99.90;;;;;;4936941;29;20874;-88
2023/08/01 09:09:16;;;;;;;2.00;1.80;;;22.30;99.90;;;;;;4936154;29;20560;-88
2023/08/01 09:11:47;;;;;;;5.80;1.73;;;22.40;99.90;;;;;;4936820;29;20871;-82
2023/08/01 09:14:19;;;;;;;3.40;2.13;;;22.40;99.90;;;;;;4927814;29;20485;-81
2023/08/01 09:19:27;;;;;;;2.70;1.90;;;22.50;99.90;;;;;;4925580;29;20902;-88
2023/08/01 09:22:12;;;;;;;2.27;2.07;;;22.50;99.90;;;;;;4936665;29;20979;-82
2023/08/01 09:24:42;;;;;;;3.00;2.80;;;22.60;99.90;;;;;;4935936;29;20477;-87
2023/08/01 09:27:09;;;;;;;2.63;2.33;;;22.70;99.90;;;;;;4935563;29;20849;-87
2023/08/01 09:29:36;;;;;;;2.13;2.03;;;22.70;99.90;;;;;;4936180;29;20543;-87
2023/08/01 09:32:16;;;;;;;1.90;1.80;;;22.80;99.90;;;;;;4935967;29;20474;-87
2023/08/01 09:34:46;;;;;;;2.17;1.93;;;22.80;99.90;;;;;;4939761;29;20547;-86
2023/08/01 09:37:16;;;;;;;3.03;1.80;;;22.80;99.90;;;;;;4940205;29;20468;-88
2023/08/01 09:39:46;;;;;;;2.43;1.70;;;22.90;99.90;;;;;;4929150;29;20484;-87
2023/08/01 09:42:15;;;;;;;2.30;1.23;;;22.90;99.90;;;;;;4942568;29;20459;-87
2023/08/01 09:44:47;;;;;;;2.13;1.93;;;22.80;99.90;;;;;;4942683;29;20524;-82
2023/08/01 09:47:19;;;;;;;1.67;1.57;;;22.80;99.90;;;;;;4942333;29;20472;-83
2023/08/01 09:49:50;;;;;;;1.93;1.73;;;22.80;99.90;;;;;;4940351;29;20453;-87
2023/08/01 09:52:28;;;;;;;3.07;1.60;;;22.80;99.90;;;;;;4946340;29;20472;-86
2023/08/01 09:55:05;;;;;;;1.90;1.80;;;22.70;99.90;;;;;;4948306;29;20469;-88
2023/08/01 09:57:32;;;;;;;1.57;1.40;;;22.70;99.90;;;;;;4943692;29;20468;-85
2023/08/01 10:00:00;;;;;;;2.00;1.43;;;22.60;99.90;;;;;;4928281;29;20482;-82
2023/08/01 10:02:32;;;;;;;2.70;1.73;;;22.60;99.90;;;;;;4946863;29;20476;-88
2023/08/01 10:05:01;;;;;;;1.50;1.40;;;22.60;99.90;;;;;;4956342;29;20473;-87
2023/08/01 10:07:32;;;;;;;2.07;1.77;;;22.60;99.90;;;;;;4948846;29;20961;-88
2023/08/01 10:10:01;;;;;;;1.90;1.80;;;22.60;99.90;;;;;;4951264;29;20538;-82
2023/08/01 10:12:29;;;;;;;1.93;1.73;;;22.50;99.90;;;;;;4960112;29;20464;-88
2023/08/01 10:14:56;;;;;;;1.53;1.43;;;22.40;99.90;;;;;;4961320;28;20480;-83
2023/08/01 10:17:56;;;;;;;5.80;5.30;;;22.40;99.90;;;;;;4959073;29;20463;-81
2023/08/01 10:20:25;;;;;;;3.93;2.33;;;22.40;99.90;;;;;;4939762;29;20547;-82
2023/08/01 10:22:53;;;;;;;6.60;6.00;;;22.30;99.90;;;;;;4960842;29;20514;-83
2023/08/01 10:25:23;;;;;;;1.80;1.63;;;22.30;99.90;;;;;;4953229;28;20978;-83
2023/08/01 10:27:59;;;;;;;1.40;1.30;;;22.20;99.90;;;;;;4960060;29;20491;-83
2023/08/01 10:30:28;;;;;;;1.13;1.03;;;22.20;99.90;;;;;;4961805;29;20475;-83
2023/08/01 10:35:41;;;;;;;1.10;0.93;;;22.10;99.90;;;;;;4944108;28;20486;-83
2023/08/01 10:38:26;;;;;;;1.50;1.37;;;22.00;99.90;;;;;;4961323;29;20560;-82
2023/08/01 10:40:53;;;;;;;1.37;1.27;;;22.00;99.90;;;;;;4958932;29;20471;-83
2023/08/01 10:43:21;;;;;;;8.60;2.70;;;22.00;99.90;;;;;;4953772;28;20551;-82
2023/08/01 10:45:48;;;;;;;5.73;2.60;;;22.00;99.90;;;;;;4965314;29;20492;-87
2023/08/01 10:48:19;;;;;;;9.30;4.43;;;21.90;99.90;;;;;;4971338;29;20496;-83
2023/08/01 10:50:56;;;;;;;6.50;3.50;;;21.80;99.90;;;;;;4975782;29;20460;-87
2023/08/01 10:53:30;;;;;;;6.70;3.20;;;21.70;99.90;;;;;;4967234;28;20479;-87
2023/08/01 10:55:58;;;;;;;5.50;2.20;;;21.60;99.90;;;;;;4979872;28;20471;-87
2023/08/01 10:58:36;;;;;;;2.90;2.50;;;21.60;99.90;;;;;;4979647;28;20460;-87
2023/08/01 11:01:03;;;;;;;3.63;2.17;;;21.60;99.90;;;;;;4977552;29;20483;-86
2023/08/01 11:03:41;;;;;;;2.87;2.50;;;21.50;99.90;;;;;;4976810;29;20506;-86
2023/08/01 11:06:08;;;;;;;3.50;2.20;;;21.50;99.90;;;;;;4974508;29;20487;-86
2023/08/01 11:08:37;;;;;;;1.67;1.57;;;21.40;99.90;;;;;;4975470;29;20467;-86
2023/08/01 11:11:05;;;;;;;3.40;2.47;;;21.40;99.90;;;;;;4975329;29;20488;-87
2023/08/01 11:13:34;;;;;;;1.93;1.53;;;21.30;99.90;;;;;;4978498;29;20448;-81
2023/08/01 11:16:03;;;;;;;1.43;1.33;;;21.20;99.90;;;;;;4978679;28;20486;-82
2023/08/01 11:18:30;;;;;;;1.43;1.33;;;21.20;99.90;;;;;;4980135;28;20452;-87
2023/08/01 11:20:59;;;;;;;2.23;1.30;;;21.20;99.90;;;;;;4975377;28;20470;-86
2023/08/01 11:23:31;;;;;;;1.40;1.13;;;21.20;99.90;;;;;;4952324;29;20496;-85
2023/08/01 11:25:58;;;;;;;1.53;1.43;;;21.20;99.90;;;;;;4961931;29;20472;-86
2023/08/01 11:28:26;;;;;;;3.97;1.53;;;21.10;99.90;;;;;;4960540;29;20482;-82
2023/08/01 11:30:52;;;;;;;1.40;1.30;;;21.10;99.90;;;;;;4959065;29;20467;-82
2023/08/01 11:33:21;;;;;;;1.83;1.40;;;21.10;99.90;;;;;;4957825;29;20476;-86
2023/08/01 11:35:53;;;;;;;2.30;1.57;;;21.10;99.90;;;;;;4960170;28;20479;-82
2023/08/01 11:38:23;;;;;;;3.43;2.00;;;21.20;99.90;;;;;;4968967;29;20482;-82
2023/08/01 11:40:51;;;;;;;2.50;2.30;;;21.20;99.90;;;;;;4971601;28;20802;-83
2023/08/01 11:43:18;;;;;;;2.67;2.47;;;21.20;99.90;;;;;;4977361;29;20468;-87
2023/08/01 11:45:54;;;;;;;2.97;2.20;;;21.30;99.90;;;;;;4978573;28;20487;-88
2023/08/01 11:48:22;;;;;;;3.50;2.90;;;21.30;99.90;;;;;;4978580;29;20503;-87
2023/08/01 11:50:49;;;;;;;4.20;3.17;;;21.30;99.90;;;;;;4979155;29;20490;-83
2023/08/01 11:53:22;;;;;;;4.13;2.90;;;21.40;99.90;;;;;;4972552;29;20472;-82
2023/08/01 11:55:52;;;;;;;4.80;3.70;;;21.40;99.90;;;;;;4968447;28;20499;-83
2023/08/01 11:58:29;;;;;;;5.67;3.90;;;21.40;99.90;;;;;;4966087;28;20475;-87
2023/08/01 12:01:03;;;;;;;3.90;3.50;;;21.40;99.90;;;;;;4958184;29;20486;-87
2023/08/01 12:03:31;;;;;;;5.50;4.80;;;21.50;99.90;;;;;;4957356;29;20551;-87
2023/08/01 12:06:04;;;;;;;5.43;4.80;;;21.50;99.90;;;;;;4957816;29;20476;-82
2023/08/01 12:08:51;;;;;;;4.13;3.77;;;21.50;99.90;;;;;;4957255;29;20468;-82
2023/08/01 12:11:22;;;;;;;5.30;4.13;;;21.50;99.90;;;;;;4956543;29;20467;-87
2023/08/01 12:14:00;;;;;;;5.00;3.97;;;21.50;99.90;;;;;;4956396;28;20471;-82
2023/08/01 12:16:34;;;;;;;6.37;3.60;;;21.60;99.90;;;;;;4933249;29;20476;-82
2023/08/01 12:19:06;;;;;;;7.53;4.47;;;21.60;99.90;;;;;;4957575;29;20524;-82
2023/08/01 12:21:45;;;;;;;4.60;4.20;;;21.60;99.90;;;;;;4957296;29;20475;-87
2023/08/01 12:24:14;;;;;;;3.47;3.17;;;21.70;99.90;;;;;;4957076;28;20579;-88
2023/08/01 12:26:43;;;;;;;5.03;3.50;;;21.70;99.90;;;;;;4956451;29;20527;-83
2023/08/01 12:29:10;;;;;;;5.03;4.20;;;21.80;99.90;;;;;;4957541;29;20546;-82
2023/08/01 12:31:37;;;;;;;6.03;3.50;;;21.70;99.90;;;;;;4957962;29;20853;-81
2023/08/01 12:34:04;;;;;;;4.90;3.40;;;21.80;99.90;;;;;;4959378;28;20545;-82
2023/08/01 12:36:34;;;;;;;4.57;3.90;;;21.80;99.90;;;;;;4959856;29;20483;-81
2023/08/01 12:39:04;;;;;;;6.87;4.63;;;21.90;99.90;;;;;;4961295;29;20472;-86
2023/08/01 12:41:34;;;;;;;3.63;3.33;;;21.80;99.90;;;;;;4958948;29;20481;-87
2023/08/01 12:44:01;;;;;;;3.67;3.37;;;21.80;99.90;;;;;;4961484;28;20993;-82
2023/08/01 12:46:28;;;;;;;4.37;4.07;;;21.90;99.90;;;;;;4958197;29;20483;-84
2023/08/01 12:48:58;;;;;;;4.00;3.70;;;21.90;99.90;;;;;;4963006;29;20476;-82
2023/08/01 12:51:26;;;;;;;4.33;3.93;;;22.00;99.90;;;;;;4946928;29;20464;-82
2023/08/01 12:53:53;;;;;;;5.60;4.87;;;22.00;99.90;;;;;;4962870;29;22202;-83
2023/08/01 12:56:20;;;;;;;4.83;4.43;;;22.00;99.90;;;;;;4965518;29;20487;-87
2023/08/01 12:58:48;;;;;;;4.53;4.23;;;22.00;99.90;;;;;;4969533;29;20571;-87
2023/08/01 13:01:18;;;;;;;4.13;3.73;;;22.00;99.90;;;;;;4961620;29;20475;-85
2023/08/01 13:03:45;;;;;;;3.90;3.60;;;22.10;99.90;;;;;;4951519;29;20472;-88